Terminal Aerodrome Forecast
Issued by NWS

Home | Current Version | Previous Version | Text Only | Print | Product List | Glossary On
Versions: 1 2 3 4 5 6 7 8 9 10 11 12 13 14 15 16 17 18 19 20 21 22 23 24 25 26 27 28 29 30 31 32 33 34 35 36 37
195
FTUS41 KOKX 240833 AAA
TAFSWF
TAF AMD
KSWF 240833Z 2409/2512 04017G28KT 3SM PLSN BR OVC010
     FM241100 04014G20KT 5SM -RA BR OVC012
     FM241800 01013KT 5SM -RA BR OVC012
     FM242300 34011KT 5SM -RAPL BR OVC016
     FM250400 32009KT P6SM BKN030
     FM250900 30007KT P6SM SCT150
      AMD NOT SKED=

USA.gov is the U.S. government's official web portal to all federal, state and local government web resources and services.